Central Wisconsin Airport
KCWA : now visible

Airfield :











YOU CAN JOIN US ON...

 
LOGIN :

Register | Disclaimer

   EN    FR    IT 

 









Legend :    VFR   Marginal VFR   IFR   Intensive IFR   Very Intensive IFR
Visi :
Ceiling :
>= 8 km
>= 3000ft
5 to 8 km
1000 to 3000 ft
1500m to 5 km
500 to 1000 ft
800 to 1500m
200 to 500 ft
< 800m
< 200 ft
Symbols :   Thunderstorms  Fog  Heavy snow  Heavy precipitations  Wind > 20 kt






- Airport Elevation : 1277 ft


KCWA - Central Wisconsin

CURRENT METAR :
  • 091447Z 02010G15KT 10SM BKN060 BKN080 18/17 A2996

EXPIRED METARs :
  • 091347Z 34011G17KT 5SM TSRA SCT022 OVC037 18/17 A2999
  • 091247Z 01006KT 10SM TSRA OVC028 18/17 A2991
  • 091210Z 02010KT 10SM OVC028 19/17 A2992
  • 091147Z 10005KT 10SM OVC028 18/17 A2991

TAF KCWA
Valid from the 09 at 14:00 until the 10 at 12:00 UTC


091349Z 0914/1012 33008KT 5SM TSRA SCT015 OVC035CB
FM091600 18007KT P6SM SCT040 BKN100
FM092000 23005KT P6SM VCTS BKN040CB
TEMPO 0922/1002 4SM TSRA BKN025CB
FM100200 23003KT P6SM -SHRA BKN040
TEMPO 1002/1006 4SM TSRA BR OVC025CB
FM100600 30004KT P6SM SCT015 BKN035
KZMP FIR / North America



MET'MAP, your aeronautical weather chart ! - Copyright ORBIFLY December 2007 - Disclaimer

ORBIFLY MET'MAP TEAM :

Programming & Development : Alexandra Zaïnal
Concept & original design : Baudouin d'Aumeries
Assistance for programming : Marc-Olivier Méhu
Technical & hardware support : Manuel Goepfert

Contact : metmap@orbifly.com




SOURCES & CREDITS :

   NOAA       Earth
Advisory